sensor_id;sensor_type;location;lat;lon;timestamp;P1;durP1;ratioP1;P2;durP2;ratioP2
14169;SDS011;63889;50.596;8.690;2024-02-14T00:00:44;3.50;;;1.98;;
14169;SDS011;63889;50.596;8.690;2024-02-14T00:03:10;4.25;;;1.67;;
14169;SDS011;63889;50.596;8.690;2024-02-14T00:05:35;8.57;;;2.20;;
14169;SDS011;63889;50.596;8.690;2024-02-14T00:08:01;2.05;;;1.65;;
14169;SDS011;63889;50.596;8.690;2024-02-14T00:10:28;2.78;;;1.55;;
14169;SDS011;63889;50.596;8.690;2024-02-14T00:12:53;2.05;;;1.38;;
14169;SDS011;63889;50.596;8.690;2024-02-14T00:15:19;5.05;;;2.83;;
14169;SDS011;63889;50.596;8.690;2024-02-14T00:17:45;3.28;;;1.77;;
14169;SDS011;63889;50.596;8.690;2024-02-14T00:20:10;7.15;;;1.75;;
14169;SDS011;63889;50.596;8.690;2024-02-14T00:22:39;3.88;;;1.88;;
14169;SDS011;63889;50.596;8.690;2024-02-14T00:25:05;4.75;;;1.75;;
14169;SDS011;63889;50.596;8.690;2024-02-14T00:27:32;3.17;;;1.75;;
14169;SDS011;63889;50.596;8.690;2024-02-14T00:29:58;3.55;;;1.92;;
14169;SDS011;63889;50.596;8.690;2024-02-14T00:32:24;4.45;;;1.98;;
14169;SDS011;63889;50.596;8.690;2024-02-14T00:34:49;8.73;;;1.80;;
14169;SDS011;63889;50.596;8.690;2024-02-14T00:37:15;3.45;;;1.85;;
14169;SDS011;63889;50.596;8.690;2024-02-14T00:39:41;2.65;;;1.70;;
14169;SDS011;63889;50.596;8.690;2024-02-14T00:42:06;4.03;;;1.38;;
14169;SDS011;63889;50.596;8.690;2024-02-14T00:44:32;4.10;;;1.67;;
14169;SDS011;63889;50.596;8.690;2024-02-14T00:46:57;3.20;;;1.85;;
14169;SDS011;63889;50.596;8.690;2024-02-14T00:49:27;4.13;;;1.30;;
14169;SDS011;63889;50.596;8.690;2024-02-14T00:51:53;3.58;;;1.67;;
14169;SDS011;63889;50.596;8.690;2024-02-14T00:54:19;4.63;;;1.73;;
14169;SDS011;63889;50.596;8.690;2024-02-14T00:56:45;3.75;;;1.90;;
14169;SDS011;63889;50.596;8.690;2024-02-14T00:59:10;5.13;;;1.75;;
14169;SDS011;63889;50.596;8.690;2024-02-14T01:01:36;2.28;;;1.20;;
14169;SDS011;63889;50.596;8.690;2024-02-14T01:04:01;2.95;;;1.42;;
14169;SDS011;63889;50.596;8.690;2024-02-14T01:06:27;3.10;;;1.60;;
14169;SDS011;63889;50.596;8.690;2024-02-14T01:08:55;4.20;;;1.45;;
14169;SDS011;63889;50.596;8.690;2024-02-14T01:11:20;4.72;;;2.05;;
14169;SDS011;63889;50.596;8.690;2024-02-14T01:13:46;5.70;;;1.60;;
14169;SDS011;63889;50.596;8.690;2024-02-14T01:16:12;7.18;;;1.60;;
14169;SDS011;63889;50.596;8.690;2024-02-14T01:18:37;3.72;;;1.52;;
14169;SDS011;63889;50.596;8.690;2024-02-14T01:21:03;4.85;;;1.73;;
14169;SDS011;63889;50.596;8.690;2024-02-14T01:23:28;4.18;;;1.70;;
14169;SDS011;63889;50.596;8.690;2024-02-14T01:25:54;3.72;;;1.85;;
14169;SDS011;63889;50.596;8.690;2024-02-14T01:28:20;4.35;;;1.55;;
14169;SDS011;63889;50.596;8.690;2024-02-14T01:30:46;2.50;;;1.38;;
14169;SDS011;63889;50.596;8.690;2024-02-14T01:33:11;2.90;;;1.88;;
14169;SDS011;63889;50.596;8.690;2024-02-14T01:35:37;7.78;;;1.98;;
14169;SDS011;63889;50.596;8.690;2024-02-14T01:38:02;3.75;;;1.48;;
14169;SDS011;63889;50.596;8.690;2024-02-14T01:40:28;4.13;;;1.83;;
14169;SDS011;63889;50.596;8.690;2024-02-14T01:42:54;4.28;;;2.03;;
14169;SDS011;63889;50.596;8.690;2024-02-14T01:45:20;2.58;;;1.60;;
14169;SDS011;63889;50.596;8.690;2024-02-14T01:47:46;3.63;;;1.75;;
14169;SDS011;63889;50.596;8.690;2024-02-14T01:50:12;4.63;;;1.85;;
14169;SDS011;63889;50.596;8.690;2024-02-14T01:52:38;3.72;;;1.83;;
14169;SDS011;63889;50.596;8.690;2024-02-14T01:55:05;4.22;;;1.92;;
14169;SDS011;63889;50.596;8.690;2024-02-14T01:57:32;6.20;;;2.20;;
14169;SDS011;63889;50.596;8.690;2024-02-14T01:59:59;3.65;;;2.13;;
14169;SDS011;63889;50.596;8.690;2024-02-14T02:02:32;3.60;;;1.92;;
14169;SDS011;63889;50.596;8.690;2024-02-14T02:04:58;6.53;;;2.55;;
14169;SDS011;63889;50.596;8.690;2024-02-14T02:07:24;5.10;;;2.03;;
14169;SDS011;63889;50.596;8.690;2024-02-14T02:09:50;4.22;;;2.08;;
14169;SDS011;63889;50.596;8.690;2024-02-14T02:12:16;4.07;;;1.83;;
14169;SDS011;63889;50.596;8.690;2024-02-14T02:14:41;10.20;;;1.83;;
14169;SDS011;63889;50.596;8.690;2024-02-14T02:17:07;5.65;;;2.13;;
14169;SDS011;63889;50.596;8.690;2024-02-14T02:19:34;4.47;;;1.80;;
14169;SDS011;63889;50.596;8.690;2024-02-14T02:22:01;4.53;;;1.92;;
14169;SDS011;63889;50.596;8.690;2024-02-14T02:24:26;4.90;;;2.20;;
14169;SDS011;63889;50.596;8.690;2024-02-14T02:26:52;4.63;;;1.80;;
14169;SDS011;63889;50.596;8.690;2024-02-14T02:29:17;3.85;;;1.90;;
14169;SDS011;63889;50.596;8.690;2024-02-14T02:31:44;16.65;;;2.25;;
14169;SDS011;63889;50.596;8.690;2024-02-14T02:34:10;6.22;;;2.08;;
14169;SDS011;63889;50.596;8.690;2024-02-14T02:36:36;3.30;;;1.75;;
14169;SDS011;63889;50.596;8.690;2024-02-14T02:39:03;5.35;;;1.70;;
14169;SDS011;63889;50.596;8.690;2024-02-14T02:41:29;7.97;;;1.63;;
14169;SDS011;63889;50.596;8.690;2024-02-14T02:43:56;7.68;;;2.05;;
14169;SDS011;63889;50.596;8.690;2024-02-14T02:46:22;4.90;;;2.58;;
14169;SDS011;63889;50.596;8.690;2024-02-14T02:48:48;3.28;;;1.90;;
14169;SDS011;63889;50.596;8.690;2024-02-14T02:51:17;4.53;;;2.13;;
14169;SDS011;63889;50.596;8.690;2024-02-14T02:53:43;6.40;;;2.00;;
14169;SDS011;63889;50.596;8.690;2024-02-14T02:56:08;4.47;;;2.42;;
14169;SDS011;63889;50.596;8.690;2024-02-14T02:58:34;3.58;;;1.83;;
14169;SDS011;63889;50.596;8.690;2024-02-14T03:01:00;6.38;;;2.33;;
14169;SDS011;63889;50.596;8.690;2024-02-14T03:03:25;7.78;;;2.13;;
14169;SDS011;63889;50.596;8.690;2024-02-14T03:05:53;8.65;;;2.20;;
14169;SDS011;63889;50.596;8.690;2024-02-14T03:08:20;7.97;;;2.70;;
14169;SDS011;63889;50.596;8.690;2024-02-14T03:10:49;8.23;;;2.30;;
14169;SDS011;63889;50.596;8.690;2024-02-14T03:13:15;9.02;;;2.22;;
14169;SDS011;63889;50.596;8.690;2024-02-14T03:15:42;7.88;;;2.47;;
14169;SDS011;63889;50.596;8.690;2024-02-14T03:18:08;5.07;;;1.75;;
14169;SDS011;63889;50.596;8.690;2024-02-14T03:20:35;9.10;;;2.45;;
14169;SDS011;63889;50.596;8.690;2024-02-14T03:23:01;4.60;;;2.00;;
14169;SDS011;63889;50.596;8.690;2024-02-14T03:25:29;6.70;;;2.63;;
14169;SDS011;63889;50.596;8.690;2024-02-14T03:27:54;6.82;;;2.47;;
14169;SDS011;63889;50.596;8.690;2024-02-14T03:30:22;4.72;;;2.45;;
14169;SDS011;63889;50.596;8.690;2024-02-14T03:32:48;5.78;;;2.72;;
14169;SDS011;63889;50.596;8.690;2024-02-14T03:35:14;4.40;;;2.33;;
14169;SDS011;63889;50.596;8.690;2024-02-14T03:37:43;3.50;;;2.05;;
14169;SDS011;63889;50.596;8.690;2024-02-14T03:40:12;6.03;;;2.03;;
14169;SDS011;63889;50.596;8.690;2024-02-14T03:42:38;5.63;;;2.00;;
14169;SDS011;63889;50.596;8.690;2024-02-14T03:45:05;4.35;;;2.00;;
14169;SDS011;63889;50.596;8.690;2024-02-14T03:47:32;4.53;;;2.10;;
14169;SDS011;63889;50.596;8.690;2024-02-14T03:49:58;7.22;;;2.25;;
14169;SDS011;63889;50.596;8.690;2024-02-14T03:52:24;3.47;;;2.20;;
14169;SDS011;63889;50.596;8.690;2024-02-14T03:54:50;3.50;;;2.05;;
14169;SDS011;63889;50.596;8.690;2024-02-14T03:57:16;10.18;;;2.13;;
14169;SDS011;63889;50.596;8.690;2024-02-14T03:59:44;5.97;;;2.58;;
14169;SDS011;63889;50.596;8.690;2024-02-14T04:02:11;5.07;;;2.65;;
14169;SDS011;63889;50.596;8.690;2024-02-14T04:04:37;5.15;;;2.15;;
14169;SDS011;63889;50.596;8.690;2024-02-14T04:07:04;5.57;;;2.20;;
14169;SDS011;63889;50.596;8.690;2024-02-14T04:09:32;4.53;;;2.67;;
14169;SDS011;63889;50.596;8.690;2024-02-14T04:11:58;4.68;;;2.60;;
14169;SDS011;63889;50.596;8.690;2024-02-14T04:14:23;4.13;;;2.85;;
14169;SDS011;63889;50.596;8.690;2024-02-14T04:16:49;7.50;;;2.03;;
14169;SDS011;63889;50.596;8.690;2024-02-14T04:19:14;5.20;;;2.05;;
14169;SDS011;63889;50.596;8.690;2024-02-14T04:21:42;5.88;;;2.10;;
14169;SDS011;63889;50.596;8.690;2024-02-14T04:24:08;4.53;;;3.05;;
14169;SDS011;63889;50.596;8.690;2024-02-14T04:26:34;5.40;;;2.13;;
14169;SDS011;63889;50.596;8.690;2024-02-14T04:29:00;2.75;;;1.80;;
14169;SDS011;63889;50.596;8.690;2024-02-14T04:31:26;2.92;;;2.20;;
14169;SDS011;63889;50.596;8.690;2024-02-14T04:33:52;5.03;;;2.10;;
14169;SDS011;63889;50.596;8.690;2024-02-14T04:36:19;5.82;;;2.40;;
14169;SDS011;63889;50.596;8.690;2024-02-14T04:38:46;4.75;;;2.13;;
14169;SDS011;63889;50.596;8.690;2024-02-14T04:41:12;4.63;;;2.40;;
14169;SDS011;63889;50.596;8.690;2024-02-14T04:43:39;4.63;;;2.10;;
14169;SDS011;63889;50.596;8.690;2024-02-14T04:46:05;3.83;;;2.17;;
14169;SDS011;63889;50.596;8.690;2024-02-14T04:48:32;5.35;;;1.80;;
14169;SDS011;63889;50.596;8.690;2024-02-14T04:50:58;6.22;;;2.17;;
14169;SDS011;63889;50.596;8.690;2024-02-14T04:53:24;2.47;;;1.70;;
14169;SDS011;63889;50.596;8.690;2024-02-14T04:55:49;5.03;;;1.73;;
14169;SDS011;63889;50.596;8.690;2024-02-14T04:58:15;3.80;;;2.20;;
14169;SDS011;63889;50.596;8.690;2024-02-14T05:00:41;7.32;;;2.45;;
14169;SDS011;63889;50.596;8.690;2024-02-14T05:03:06;3.92;;;2.08;;
14169;SDS011;63889;50.596;8.690;2024-02-14T05:05:32;5.38;;;2.30;;
14169;SDS011;63889;50.596;8.690;2024-02-14T05:08:00;6.07;;;2.22;;
14169;SDS011;63889;50.596;8.690;2024-02-14T05:10:27;3.00;;;1.77;;
14169;SDS011;63889;50.596;8.690;2024-02-14T05:12:53;5.75;;;2.47;;
14169;SDS011;63889;50.596;8.690;2024-02-14T05:15:19;6.75;;;2.35;;
14169;SDS011;63889;50.596;8.690;2024-02-14T05:17:45;3.75;;;1.90;;
14169;SDS011;63889;50.596;8.690;2024-02-14T05:20:10;4.60;;;1.83;;
14169;SDS011;63889;50.596;8.690;2024-02-14T05:22:36;3.58;;;2.20;;
14169;SDS011;63889;50.596;8.690;2024-02-14T05:25:05;6.93;;;2.60;;
14169;SDS011;63889;50.596;8.690;2024-02-14T05:27:34;4.43;;;2.45;;
14169;SDS011;63889;50.596;8.690;2024-02-14T05:30:01;9.02;;;2.90;;
14169;SDS011;63889;50.596;8.690;2024-02-14T05:32:30;4.90;;;1.88;;
14169;SDS011;63889;50.596;8.690;2024-02-14T05:34:56;8.77;;;2.40;;
14169;SDS011;63889;50.596;8.690;2024-02-14T05:37:22;3.67;;;1.95;;
14169;SDS011;63889;50.596;8.690;2024-02-14T05:39:47;7.78;;;2.75;;
14169;SDS011;63889;50.596;8.690;2024-02-14T05:42:13;6.55;;;2.08;;
14169;SDS011;63889;50.596;8.690;2024-02-14T05:44:41;7.00;;;2.55;;
14169;SDS011;63889;50.596;8.690;2024-02-14T05:47:07;3.45;;;2.20;;
14169;SDS011;63889;50.596;8.690;2024-02-14T05:49:33;7.57;;;2.47;;
14169;SDS011;63889;50.596;8.690;2024-02-14T05:51:59;4.78;;;2.70;;
14169;SDS011;63889;50.596;8.690;2024-02-14T05:54:25;5.97;;;2.25;;
14169;SDS011;63889;50.596;8.690;2024-02-14T05:56:50;6.75;;;2.38;;
14169;SDS011;63889;50.596;8.690;2024-02-14T05:59:16;3.70;;;1.95;;
14169;SDS011;63889;50.596;8.690;2024-02-14T06:01:41;4.13;;;2.20;;
14169;SDS011;63889;50.596;8.690;2024-02-14T06:04:07;8.75;;;2.92;;
14169;SDS011;63889;50.596;8.690;2024-02-14T06:06:32;5.32;;;2.20;;
14169;SDS011;63889;50.596;8.690;2024-02-14T06:08:58;6.60;;;2.28;;
14169;SDS011;63889;50.596;8.690;2024-02-14T06:11:23;6.85;;;2.47;;
14169;SDS011;63889;50.596;8.690;2024-02-14T06:13:49;4.60;;;1.90;;
14169;SDS011;63889;50.596;8.690;2024-02-14T06:16:15;5.35;;;2.10;;
14169;SDS011;63889;50.596;8.690;2024-02-14T06:18:40;6.28;;;2.28;;
14169;SDS011;63889;50.596;8.690;2024-02-14T06:21:06;7.40;;;2.53;;
14169;SDS011;63889;50.596;8.690;2024-02-14T06:23:31;4.80;;;2.42;;
14169;SDS011;63889;50.596;8.690;2024-02-14T06:25:57;7.32;;;2.20;;
14169;SDS011;63889;50.596;8.690;2024-02-14T06:28:23;5.25;;;2.72;;
14169;SDS011;63889;50.596;8.690;2024-02-14T06:30:49;7.20;;;2.53;;
14169;SDS011;63889;50.596;8.690;2024-02-14T06:33:14;5.78;;;2.10;;
14169;SDS011;63889;50.596;8.690;2024-02-14T06:35:40;4.40;;;2.35;;
14169;SDS011;63889;50.596;8.690;2024-02-14T06:38:05;7.00;;;2.45;;
14169;SDS011;63889;50.596;8.690;2024-02-14T06:40:31;4.63;;;2.28;;
14169;SDS011;63889;50.596;8.690;2024-02-14T06:42:57;3.40;;;1.85;;
14169;SDS011;63889;50.596;8.690;2024-02-14T06:45:25;6.00;;;2.53;;
14169;SDS011;63889;50.596;8.690;2024-02-14T06:47:50;16.02;;;2.75;;
14169;SDS011;63889;50.596;8.690;2024-02-14T06:50:16;14.38;;;2.55;;
14169;SDS011;63889;50.596;8.690;2024-02-14T06:52:42;5.47;;;2.45;;
14169;SDS011;63889;50.596;8.690;2024-02-14T06:55:07;11.13;;;3.25;;
14169;SDS011;63889;50.596;8.690;2024-02-14T06:57:33;7.28;;;3.28;;
14169;SDS011;63889;50.596;8.690;2024-02-14T06:59:59;5.22;;;2.72;;
14169;SDS011;63889;50.596;8.690;2024-02-14T07:02:24;4.40;;;2.60;;
14169;SDS011;63889;50.596;8.690;2024-02-14T07:04:53;7.57;;;2.53;;
14169;SDS011;63889;50.596;8.690;2024-02-14T07:07:19;8.27;;;2.17;;
14169;SDS011;63889;50.596;8.690;2024-02-14T07:09:45;11.38;;;2.90;;
14169;SDS011;63889;50.596;8.690;2024-02-14T07:12:10;13.73;;;2.80;;
14169;SDS011;63889;50.596;8.690;2024-02-14T07:14:36;7.43;;;2.47;;
14169;SDS011;63889;50.596;8.690;2024-02-14T07:17:02;5.97;;;2.53;;
14169;SDS011;63889;50.596;8.690;2024-02-14T07:19:28;5.95;;;2.40;;
14169;SDS011;63889;50.596;8.690;2024-02-14T07:21:53;8.98;;;2.53;;
14169;SDS011;63889;50.596;8.690;2024-02-14T07:24:19;8.20;;;2.63;;
14169;SDS011;63889;50.596;8.690;2024-02-14T07:26:44;7.10;;;2.97;;
14169;SDS011;63889;50.596;8.690;2024-02-14T07:29:11;6.13;;;2.80;;
14169;SDS011;63889;50.596;8.690;2024-02-14T07:31:36;5.40;;;2.53;;
14169;SDS011;63889;50.596;8.690;2024-02-14T07:34:02;4.85;;;2.13;;
14169;SDS011;63889;50.596;8.690;2024-02-14T07:36:28;4.55;;;2.40;;
14169;SDS011;63889;50.596;8.690;2024-02-14T07:38:54;4.93;;;2.63;;
14169;SDS011;63889;50.596;8.690;2024-02-14T07:41:20;5.30;;;2.30;;
14169;SDS011;63889;50.596;8.690;2024-02-14T07:43:45;5.65;;;2.80;;
14169;SDS011;63889;50.596;8.690;2024-02-14T07:46:15;4.65;;;2.38;;
14169;SDS011;63889;50.596;8.690;2024-02-14T07:48:43;4.60;;;2.42;;
14169;SDS011;63889;50.596;8.690;2024-02-14T07:51:09;3.00;;;2.00;;
14169;SDS011;63889;50.596;8.690;2024-02-14T07:53:34;5.65;;;2.55;;
14169;SDS011;63889;50.596;8.690;2024-02-14T07:56:00;4.50;;;2.05;;
14169;SDS011;63889;50.596;8.690;2024-02-14T07:58:26;7.47;;;2.90;;
14169;SDS011;63889;50.596;8.690;2024-02-14T08:00:51;5.72;;;2.08;;
14169;SDS011;63889;50.596;8.690;2024-02-14T08:03:17;6.57;;;2.30;;
14169;SDS011;63889;50.596;8.690;2024-02-14T08:05:42;8.25;;;2.63;;
14169;SDS011;63889;50.596;8.690;2024-02-14T08:08:08;5.38;;;2.25;;
14169;SDS011;63889;50.596;8.690;2024-02-14T08:10:33;3.75;;;2.38;;
14169;SDS011;63889;50.596;8.690;2024-02-14T08:12:59;6.72;;;2.67;;
14169;SDS011;63889;50.596;8.690;2024-02-14T08:15:24;4.18;;;2.40;;
14169;SDS011;63889;50.596;8.690;2024-02-14T08:17:50;6.57;;;2.60;;
14169;SDS011;63889;50.596;8.690;2024-02-14T08:20:18;5.53;;;2.95;;
14169;SDS011;63889;50.596;8.690;2024-02-14T08:22:44;5.97;;;3.00;;
14169;SDS011;63889;50.596;8.690;2024-02-14T08:25:10;10.27;;;2.35;;
14169;SDS011;63889;50.596;8.690;2024-02-14T08:27:36;9.98;;;2.58;;
14169;SDS011;63889;50.596;8.690;2024-02-14T08:30:02;5.65;;;2.28;;
14169;SDS011;63889;50.596;8.690;2024-02-14T08:32:29;11.57;;;3.03;;
14169;SDS011;63889;50.596;8.690;2024-02-14T08:34:55;8.77;;;2.40;;
14169;SDS011;63889;50.596;8.690;2024-02-14T08:37:21;8.27;;;2.90;;
14169;SDS011;63889;50.596;8.690;2024-02-14T08:39:47;5.22;;;2.40;;
14169;SDS011;63889;50.596;8.690;2024-02-14T08:42:12;7.35;;;2.25;;
14169;SDS011;63889;50.596;8.690;2024-02-14T08:44:38;4.50;;;2.17;;
14169;SDS011;63889;50.596;8.690;2024-02-14T08:47:03;4.80;;;2.53;;
14169;SDS011;63889;50.596;8.690;2024-02-14T08:49:29;5.47;;;2.15;;
14169;SDS011;63889;50.596;8.690;2024-02-14T08:51:55;2.60;;;2.10;;
14169;SDS011;63889;50.596;8.690;2024-02-14T08:54:20;9.05;;;2.47;;
14169;SDS011;63889;50.596;8.690;2024-02-14T08:56:48;4.63;;;2.20;;
14169;SDS011;63889;50.596;8.690;2024-02-14T08:59:13;5.00;;;2.15;;
14169;SDS011;63889;50.596;8.690;2024-02-14T09:01:39;6.53;;;2.20;;
14169;SDS011;63889;50.596;8.690;2024-02-14T09:04:05;4.47;;;2.47;;
14169;SDS011;63889;50.596;8.690;2024-02-14T09:06:30;4.90;;;1.92;;
14169;SDS011;63889;50.596;8.690;2024-02-14T09:08:57;5.95;;;2.60;;
14169;SDS011;63889;50.596;8.690;2024-02-14T09:11:23;7.30;;;2.22;;
14169;SDS011;63889;50.596;8.690;2024-02-14T09:13:49;6.68;;;2.20;;
14169;SDS011;63889;50.596;8.690;2024-02-14T09:16:18;4.30;;;1.85;;
14169;SDS011;63889;50.596;8.690;2024-02-14T09:18:47;7.30;;;2.28;;
14169;SDS011;63889;50.596;8.690;2024-02-14T09:21:13;8.02;;;2.92;;
14169;SDS011;63889;50.596;8.690;2024-02-14T09:23:40;4.90;;;2.13;;
14169;SDS011;63889;50.596;8.690;2024-02-14T09:26:06;5.63;;;2.33;;
14169;SDS011;63889;50.596;8.690;2024-02-14T09:28:32;2.83;;;1.83;;
14169;SDS011;63889;50.596;8.690;2024-02-14T09:31:00;7.45;;;2.17;;
14169;SDS011;63889;50.596;8.690;2024-02-14T09:33:26;6.20;;;2.72;;
14169;SDS011;63889;50.596;8.690;2024-02-14T09:35:51;8.07;;;1.90;;
14169;SDS011;63889;50.596;8.690;2024-02-14T09:38:17;11.55;;;2.42;;
14169;SDS011;63889;50.596;8.690;2024-02-14T09:40:43;3.58;;;1.77;;
14169;SDS011;63889;50.596;8.690;2024-02-14T09:43:15;4.22;;;2.10;;
14169;SDS011;63889;50.596;8.690;2024-02-14T09:45:53;3.50;;;2.03;;
14169;SDS011;63889;50.596;8.690;2024-02-14T09:48:19;3.83;;;1.70;;
14169;SDS011;63889;50.596;8.690;2024-02-14T09:50:46;3.85;;;1.92;;
14169;SDS011;63889;50.596;8.690;2024-02-14T09:53:14;6.85;;;1.95;;
14169;SDS011;63889;50.596;8.690;2024-02-14T09:55:40;8.35;;;2.95;;
14169;SDS011;63889;50.596;8.690;2024-02-14T09:58:06;2.05;;;1.17;;
14169;SDS011;63889;50.596;8.690;2024-02-14T10:00:33;2.88;;;0.88;;
14169;SDS011;63889;50.596;8.690;2024-02-14T10:09:43;2.72;;;0.70;;
14169;SDS011;63889;50.596;8.690;2024-02-14T10:12:09;0.80;;;0.73;;
14169;SDS011;63889;50.596;8.690;2024-02-14T10:14:35;1.75;;;0.90;;
14169;SDS011;63889;50.596;8.690;2024-02-14T10:17:02;2.50;;;1.23;;
14169;SDS011;63889;50.596;8.690;2024-02-14T10:19:31;1.35;;;0.80;;
14169;SDS011;63889;50.596;8.690;2024-02-14T10:21:57;3.50;;;1.00;;
14169;SDS011;63889;50.596;8.690;2024-02-14T10:24:24;1.00;;;0.90;;
14169;SDS011;63889;50.596;8.690;2024-02-14T10:26:51;2.55;;;0.90;;
14169;SDS011;63889;50.596;8.690;2024-02-14T10:29:18;1.60;;;0.70;;
14169;SDS011;63889;50.596;8.690;2024-02-14T10:31:45;1.10;;;0.70;;
14169;SDS011;63889;50.596;8.690;2024-02-14T10:34:11;2.00;;;0.70;;
14169;SDS011;63889;50.596;8.690;2024-02-14T10:36:37;1.23;;;0.70;;
14169;SDS011;63889;50.596;8.690;2024-02-14T10:39:05;7.47;;;1.13;;
14169;SDS011;63889;50.596;8.690;2024-02-14T10:41:32;1.15;;;0.70;;
14169;SDS011;63889;50.596;8.690;2024-02-14T10:44:01;2.47;;;0.80;;
14169;SDS011;63889;50.596;8.690;2024-02-14T10:46:35;0.98;;;0.82;;
14169;SDS011;63889;50.596;8.690;2024-02-14T10:49:03;2.03;;;0.90;;
14169;SDS011;63889;50.596;8.690;2024-02-14T10:51:36;1.90;;;0.63;;
14169;SDS011;63889;50.596;8.690;2024-02-14T10:54:12;2.88;;;0.70;;
14169;SDS011;63889;50.596;8.690;2024-02-14T10:56:39;0.65;;;0.55;;
14169;SDS011;63889;50.596;8.690;2024-02-14T10:59:07;0.93;;;0.70;;
14169;SDS011;63889;50.596;8.690;2024-02-14T11:01:35;3.60;;;0.80;;
14169;SDS011;63889;50.596;8.690;2024-02-14T11:04:01;1.35;;;0.70;;
14169;SDS011;63889;50.596;8.690;2024-02-14T11:06:29;1.60;;;0.47;;
14169;SDS011;63889;50.596;8.690;2024-02-14T11:09:00;1.20;;;0.70;;
14169;SDS011;63889;50.596;8.690;2024-02-14T11:11:32;1.85;;;0.70;;
14169;SDS011;63889;50.596;8.690;2024-02-14T11:13:57;0.95;;;0.70;;
14169;SDS011;63889;50.596;8.690;2024-02-14T11:16:26;2.70;;;1.05;;
14169;SDS011;63889;50.596;8.690;2024-02-14T11:18:53;4.35;;;1.10;;
14169;SDS011;63889;50.596;8.690;2024-02-14T11:21:31;1.25;;;0.68;;
14169;SDS011;63889;50.596;8.690;2024-02-14T11:23:56;1.73;;;0.90;;
14169;SDS011;63889;50.596;8.690;2024-02-14T11:26:37;2.75;;;0.60;;
14169;SDS011;63889;50.596;8.690;2024-02-14T11:29:15;3.00;;;0.90;;
14169;SDS011;63889;50.596;8.690;2024-02-14T11:31:41;1.83;;;1.00;;
14169;SDS011;63889;50.596;8.690;2024-02-14T11:34:08;4.35;;;2.10;;
14169;SDS011;63889;50.596;8.690;2024-02-14T11:36:36;1.33;;;0.73;;
14169;SDS011;63889;50.596;8.690;2024-02-14T11:39:05;1.73;;;0.88;;
14169;SDS011;63889;50.596;8.690;2024-02-14T11:41:33;2.08;;;0.80;;
14169;SDS011;63889;50.596;8.690;2024-02-14T11:44:03;1.85;;;0.73;;
14169;SDS011;63889;50.596;8.690;2024-02-14T11:46:33;1.02;;;0.60;;
14169;SDS011;63889;50.596;8.690;2024-02-14T11:48:59;2.55;;;0.68;;
14169;SDS011;63889;50.596;8.690;2024-02-14T11:51:30;3.53;;;0.77;;
14169;SDS011;63889;50.596;8.690;2024-02-14T11:53:58;2.15;;;0.77;;
14169;SDS011;63889;50.596;8.690;2024-02-14T11:56:31;3.13;;;1.35;;
14169;SDS011;63889;50.596;8.690;2024-02-14T11:59:02;1.30;;;0.73;;
14169;SDS011;63889;50.596;8.690;2024-02-14T12:01:30;2.80;;;0.73;;
14169;SDS011;63889;50.596;8.690;2024-02-14T12:04:04;2.65;;;0.63;;
14169;SDS011;63889;50.596;8.690;2024-02-14T12:06:33;2.63;;;0.55;;
14169;SDS011;63889;50.596;8.690;2024-02-14T12:09:03;1.70;;;0.70;;
14169;SDS011;63889;50.596;8.690;2024-02-14T12:11:36;1.17;;;0.52;;
14169;SDS011;63889;50.596;8.690;2024-02-14T12:14:07;1.90;;;1.05;;
14169;SDS011;63889;50.596;8.690;2024-02-14T12:16:34;2.25;;;0.93;;
14169;SDS011;63889;50.596;8.690;2024-02-14T12:19:05;1.40;;;0.70;;
14169;SDS011;63889;50.596;8.690;2024-02-14T12:21:38;2.05;;;0.70;;
14169;SDS011;63889;50.596;8.690;2024-02-14T12:24:08;2.03;;;0.52;;
14169;SDS011;63889;50.596;8.690;2024-02-14T12:26:35;2.10;;;0.95;;
14169;SDS011;63889;50.596;8.690;2024-02-14T12:29:02;3.53;;;1.00;;
14169;SDS011;63889;50.596;8.690;2024-02-14T12:31:28;1.25;;;0.60;;
14169;SDS011;63889;50.596;8.690;2024-02-14T12:33:56;1.80;;;1.00;;
14169;SDS011;63889;50.596;8.690;2024-02-14T12:36:24;1.00;;;0.50;;
14169;SDS011;63889;50.596;8.690;2024-02-14T12:38:50;1.65;;;0.30;;
14169;SDS011;63889;50.596;8.690;2024-02-14T12:41:18;3.22;;;0.50;;
14169;SDS011;63889;50.596;8.690;2024-02-14T12:43:43;1.20;;;0.40;;
14169;SDS011;63889;50.596;8.690;2024-02-14T12:46:09;0.60;;;0.30;;
14169;SDS011;63889;50.596;8.690;2024-02-14T12:48:35;4.28;;;0.60;;
14169;SDS011;63889;50.596;8.690;2024-02-14T12:51:00;2.88;;;0.90;;
14169;SDS011;63889;50.596;8.690;2024-02-14T12:53:26;1.52;;;0.85;;
14169;SDS011;63889;50.596;8.690;2024-02-14T12:55:51;1.13;;;0.70;;
14169;SDS011;63889;50.596;8.690;2024-02-14T12:58:17;0.93;;;0.40;;
14169;SDS011;63889;50.596;8.690;2024-02-14T13:00:43;2.67;;;0.90;;
14169;SDS011;63889;50.596;8.690;2024-02-14T13:03:09;1.48;;;0.70;;
14169;SDS011;63889;50.596;8.690;2024-02-14T13:05:36;1.55;;;0.40;;
14169;SDS011;63889;50.596;8.690;2024-02-14T13:08:02;3.40;;;0.57;;
14169;SDS011;63889;50.596;8.690;2024-02-14T13:10:28;4.20;;;0.40;;
14169;SDS011;63889;50.596;8.690;2024-02-14T13:12:54;3.85;;;0.70;;
14169;SDS011;63889;50.596;8.690;2024-02-14T13:15:19;0.90;;;0.45;;
14169;SDS011;63889;50.596;8.690;2024-02-14T13:17:45;2.72;;;0.80;;
14169;SDS011;63889;50.596;8.690;2024-02-14T13:20:11;3.17;;;0.88;;
14169;SDS011;63889;50.596;8.690;2024-02-14T13:22:37;2.80;;;0.75;;
14169;SDS011;63889;50.596;8.690;2024-02-14T13:25:02;0.98;;;0.50;;
14169;SDS011;63889;50.596;8.690;2024-02-14T13:27:30;0.73;;;0.45;;
14169;SDS011;63889;50.596;8.690;2024-02-14T13:29:55;6.40;;;0.60;;
14169;SDS011;63889;50.596;8.690;2024-02-14T13:32:21;2.35;;;0.40;;
14169;SDS011;63889;50.596;8.690;2024-02-14T13:34:46;1.02;;;0.43;;
14169;SDS011;63889;50.596;8.690;2024-02-14T13:37:13;1.67;;;0.50;;
14169;SDS011;63889;50.596;8.690;2024-02-14T13:39:40;1.60;;;0.50;;
14169;SDS011;63889;50.596;8.690;2024-02-14T13:42:06;3.78;;;0.60;;
14169;SDS011;63889;50.596;8.690;2024-02-14T13:44:33;1.52;;;0.38;;
14169;SDS011;63889;50.596;8.690;2024-02-14T13:46:58;1.15;;;0.55;;
14169;SDS011;63889;50.596;8.690;2024-02-14T13:49:24;2.08;;;0.73;;
14169;SDS011;63889;50.596;8.690;2024-02-14T13:51:51;2.45;;;0.50;;
14169;SDS011;63889;50.596;8.690;2024-02-14T13:54:20;1.23;;;0.60;;
14169;SDS011;63889;50.596;8.690;2024-02-14T13:56:47;1.15;;;0.47;;
14169;SDS011;63889;50.596;8.690;2024-02-14T13:59:13;1.63;;;0.52;;
14169;SDS011;63889;50.596;8.690;2024-02-14T14:01:39;1.65;;;0.60;;
14169;SDS011;63889;50.596;8.690;2024-02-14T14:04:05;2.95;;;0.95;;
14169;SDS011;63889;50.596;8.690;2024-02-14T14:06:31;0.70;;;0.52;;
14169;SDS011;63889;50.596;8.690;2024-02-14T14:08:57;2.78;;;1.02;;
14169;SDS011;63889;50.596;8.690;2024-02-14T14:11:24;2.75;;;1.13;;
14169;SDS011;63889;50.596;8.690;2024-02-14T14:13:49;1.83;;;0.60;;
14169;SDS011;63889;50.596;8.690;2024-02-14T14:16:16;1.58;;;0.75;;
14169;SDS011;63889;50.596;8.690;2024-02-14T14:18:42;4.28;;;1.27;;
14169;SDS011;63889;50.596;8.690;2024-02-14T14:21:08;2.13;;;0.90;;
14169;SDS011;63889;50.596;8.690;2024-02-14T14:23:33;4.05;;;1.13;;
14169;SDS011;63889;50.596;8.690;2024-02-14T14:25:59;4.70;;;0.73;;
14169;SDS011;63889;50.596;8.690;2024-02-14T14:28:26;1.75;;;0.60;;
14169;SDS011;63889;50.596;8.690;2024-02-14T14:30:52;1.52;;;0.65;;
14169;SDS011;63889;50.596;8.690;2024-02-14T14:33:19;0.70;;;0.50;;
14169;SDS011;63889;50.596;8.690;2024-02-14T14:35:45;2.33;;;0.77;;
14169;SDS011;63889;50.596;8.690;2024-02-14T14:38:11;2.08;;;0.50;;
14169;SDS011;63889;50.596;8.690;2024-02-14T14:40:36;1.20;;;0.70;;
14169;SDS011;63889;50.596;8.690;2024-02-14T14:43:02;1.55;;;0.65;;
14169;SDS011;63889;50.596;8.690;2024-02-14T14:45:28;2.67;;;0.73;;
14169;SDS011;63889;50.596;8.690;2024-02-14T14:47:56;1.42;;;0.77;;
14169;SDS011;63889;50.596;8.690;2024-02-14T14:50:21;1.67;;;0.57;;